createdAt,value
2023-01-29T00:02:08.084Z,2.50
2023-01-29T00:04:35.067Z,2.50
2023-01-29T00:07:01.801Z,2.50
2023-01-29T00:09:29.201Z,2.48
2023-01-29T00:11:55.997Z,2.40
2023-01-29T00:14:22.707Z,2.42
2023-01-29T00:16:49.645Z,2.40
2023-01-29T00:19:17.577Z,2.40
2023-01-29T00:21:44.270Z,2.40
2023-01-29T00:24:11.466Z,2.40
2023-01-29T00:26:40.148Z,2.40
2023-01-29T00:29:06.854Z,2.40
2023-01-29T00:31:34.084Z,2.40
2023-01-29T00:34:00.854Z,2.40
2023-01-29T00:36:28.518Z,2.40
2023-01-29T00:38:58.923Z,2.40
2023-01-29T00:41:49.742Z,2.40
2023-01-29T00:44:35.849Z,2.40
2023-01-29T00:47:03.912Z,2.32
2023-01-29T00:49:38.436Z,2.32
2023-01-29T00:52:24.117Z,2.38
2023-01-29T00:54:56.202Z,2.32
2023-01-29T00:57:24.935Z,2.30
2023-01-29T00:59:53.554Z,2.30
2023-01-29T01:02:40.248Z,2.30
2023-01-29T01:05:10.425Z,2.30
2023-01-29T01:07:37.130Z,2.26
2023-01-29T01:10:22.423Z,2.20
2023-01-29T01:13:00.710Z,2.20
2023-01-29T01:15:31.822Z,2.20
2023-01-29T01:18:01.250Z,2.20
2023-01-29T01:20:30.879Z,2.20
2023-01-29T01:22:57.730Z,2.20
2023-01-29T01:25:26.104Z,2.20
2023-01-29T01:27:54.115Z,2.20
2023-01-29T01:30:22.149Z,2.20
2023-01-29T01:32:49.302Z,2.20
2023-01-29T01:35:16.124Z,2.22
2023-01-29T01:37:43.161Z,2.28
2023-01-29T01:40:19.261Z,2.30
2023-01-29T01:42:55.728Z,2.30
2023-01-29T01:45:34.469Z,2.30
2023-01-29T01:48:01.464Z,2.30
2023-01-29T01:50:43.347Z,2.30
2023-01-29T01:53:17.063Z,2.30
2023-01-29T01:55:52.745Z,2.32
2023-01-29T01:58:36.648Z,2.36
2023-01-29T02:01:08.425Z,2.38
2023-01-29T02:04:02.772Z,2.40
2023-01-29T02:06:49.732Z,2.40
2023-01-29T02:09:35.608Z,2.40
2023-01-29T02:12:05.090Z,2.40
2023-01-29T02:14:32.281Z,2.34
2023-01-29T02:17:02.502Z,2.40
2023-01-29T02:19:52.431Z,2.40
2023-01-29T02:22:38.129Z,2.38
2023-01-29T02:25:15.362Z,2.40
2023-01-29T02:27:48.203Z,2.34
2023-01-29T02:30:28.763Z,2.38
2023-01-29T02:33:07.795Z,2.40
2023-01-29T02:35:38.424Z,2.40
2023-01-29T02:38:18.677Z,2.40
2023-01-29T02:41:17.861Z,2.32
2023-01-29T02:43:59.102Z,2.30
2023-01-29T02:46:35.329Z,2.30
2023-01-29T02:49:29.142Z,2.20
2023-01-29T02:52:17.963Z,2.10
2023-01-29T02:54:54.831Z,2.10
2023-01-29T02:57:29.318Z,2.00
2023-01-29T03:00:02.445Z,2.00
2023-01-29T03:02:35.718Z,1.92
2023-01-29T03:05:07.805Z,1.90
2023-01-29T03:07:42.510Z,1.90
2023-01-29T03:10:42.792Z,1.90
2023-01-29T03:13:43.926Z,1.94
2023-01-29T03:16:19.302Z,2.00
2023-01-29T03:18:53.274Z,2.00
2023-01-29T03:21:56.236Z,2.00
2023-01-29T03:24:51.373Z,2.06
2023-01-29T03:27:42.073Z,2.10
2023-01-29T03:30:32.955Z,2.10
2023-01-29T03:33:12.773Z,2.10
2023-01-29T03:35:47.462Z,2.10
2023-01-29T03:38:16.116Z,2.16
2023-01-29T03:40:49.321Z,2.20
2023-01-29T03:43:40.001Z,2.18
2023-01-29T03:46:08.563Z,2.20
2023-01-29T03:48:40.251Z,2.20
2023-01-29T03:51:22.415Z,2.20
2023-01-29T03:53:56.245Z,2.20
2023-01-29T03:56:37.322Z,2.20
2023-01-29T03:59:45.023Z,2.20
2023-01-29T04:02:52.519Z,2.20
2023-01-29T04:05:28.472Z,2.20
2023-01-29T04:08:11.207Z,2.26
2023-01-29T04:10:40.289Z,2.28
2023-01-29T04:13:11.603Z,2.30
2023-01-29T04:15:45.354Z,2.30
2023-01-29T04:18:12.481Z,2.30
2023-01-29T04:20:56.030Z,2.30
2023-01-29T04:23:25.695Z,2.30
2023-01-29T04:26:14.943Z,2.30
2023-01-29T04:29:06.271Z,2.30
2023-01-29T04:31:40.855Z,2.30
2023-01-29T04:34:32.969Z,2.20
2023-01-29T04:37:12.199Z,2.26
2023-01-29T04:40:13.390Z,2.28
2023-01-29T04:42:52.270Z,2.30
2023-01-29T04:45:35.850Z,2.22
2023-01-29T04:48:17.902Z,2.22
2023-01-29T04:50:51.919Z,2.20
2023-01-29T04:53:57.328Z,2.20
2023-01-29T04:56:48.387Z,2.20
2023-01-29T04:59:23.830Z,2.20
2023-01-29T05:01:50.905Z,2.10
2023-01-29T05:04:21.089Z,2.10
2023-01-29T05:06:48.957Z,2.10
2023-01-29T05:09:17.633Z,2.00
2023-01-29T05:11:46.440Z,2.00
2023-01-29T05:14:17.879Z,2.00
2023-01-29T05:16:49.852Z,1.98
2023-01-29T05:19:17.614Z,2.00
2023-01-29T05:21:50.400Z,2.00
2023-01-29T05:24:22.600Z,2.00
2023-01-29T05:27:10.795Z,2.00
2023-01-29T05:29:38.722Z,2.00
2023-01-29T05:32:05.709Z,2.06
2023-01-29T05:34:32.413Z,2.10
2023-01-29T05:36:59.187Z,2.10
2023-01-29T05:39:25.894Z,2.10
2023-01-29T05:41:52.768Z,2.10
2023-01-29T05:44:20.595Z,2.10
2023-01-29T05:46:47.553Z,2.12
2023-01-29T05:49:14.490Z,2.20
2023-01-29T05:51:41.260Z,2.10
2023-01-29T05:54:08.027Z,2.20
2023-01-29T05:56:34.842Z,2.20
2023-01-29T05:59:01.588Z,2.20
2023-01-29T06:01:28.411Z,2.20
2023-01-29T06:03:55.212Z,2.20
2023-01-29T06:06:22.392Z,2.20
2023-01-29T06:08:49.769Z,2.20
2023-01-29T06:11:18.377Z,2.20
2023-01-29T06:13:45.963Z,2.20
2023-01-29T06:16:13.998Z,2.20
2023-01-29T06:18:41.546Z,2.20
2023-01-29T06:21:11.914Z,2.20
2023-01-29T06:23:38.965Z,2.20
2023-01-29T06:26:11.848Z,2.20
2023-01-29T06:28:39.238Z,2.20
2023-01-29T06:31:24.327Z,2.20
2023-01-29T06:33:54.428Z,2.20
2023-01-29T06:36:21.192Z,2.20
2023-01-29T06:38:48.204Z,2.20
2023-01-29T06:41:18.338Z,2.20
2023-01-29T06:43:46.312Z,2.20
2023-01-29T06:46:13.063Z,2.18
2023-01-29T06:48:39.797Z,2.20
2023-01-29T06:51:08.771Z,2.10
2023-01-29T06:53:36.644Z,2.10
2023-01-29T06:56:04.523Z,2.10
2023-01-29T06:58:31.481Z,2.10
2023-01-29T07:01:10.064Z,2.10
2023-01-29T07:03:37.546Z,2.10
2023-01-29T07:06:06.246Z,2.20
2023-01-29T07:08:36.862Z,2.20
2023-01-29T07:11:04.353Z,2.20
2023-01-29T07:13:31.361Z,2.20
2023-01-29T07:15:59.977Z,2.26
2023-01-29T07:18:28.305Z,2.30
2023-01-29T07:20:55.675Z,2.30
2023-01-29T07:23:23.144Z,2.30
2023-01-29T07:25:50.486Z,2.32
2023-01-29T07:28:18.467Z,2.40
2023-01-29T07:30:45.400Z,2.40
2023-01-29T07:33:12.245Z,2.40
2023-01-29T07:35:40.650Z,2.40
2023-01-29T07:38:09.110Z,2.40
2023-01-29T07:40:35.967Z,2.40
2023-01-29T07:43:06.182Z,2.50
2023-01-29T07:45:38.643Z,2.50
2023-01-29T07:48:07.223Z,2.60
2023-01-29T07:50:35.665Z,2.60
2023-01-29T07:53:03.054Z,2.70
2023-01-29T07:55:30.953Z,2.68
2023-01-29T07:57:58.891Z,2.80
2023-01-29T08:00:25.992Z,2.74
2023-01-29T08:02:52.705Z,2.90
2023-01-29T08:05:20.443Z,2.92
2023-01-29T08:08:05.728Z,3.00
2023-01-29T08:10:34.974Z,3.10
2023-01-29T08:13:02.277Z,3.10
2023-01-29T08:15:29.695Z,3.20
2023-01-29T08:17:58.424Z,3.26
2023-01-29T08:20:25.753Z,3.30
2023-01-29T08:23:07.283Z,3.40
2023-01-29T08:25:35.994Z,3.42
2023-01-29T08:28:02.910Z,3.50
2023-01-29T08:30:32.601Z,3.50
2023-01-29T08:32:59.679Z,3.60
2023-01-29T08:35:26.996Z,3.60
2023-01-29T08:38:02.193Z,3.70
2023-01-29T08:40:32.077Z,3.70
2023-01-29T08:43:02.200Z,3.70
2023-01-29T08:45:30.474Z,3.80
2023-01-29T08:47:57.589Z,3.80
2023-01-29T08:50:24.384Z,3.80
2023-01-29T08:52:51.818Z,3.80
2023-01-29T08:55:18.824Z,3.80
2023-01-29T08:57:45.885Z,3.80
2023-01-29T09:00:13.379Z,3.82
2023-01-29T09:02:40.181Z,3.90
2023-01-29T09:05:07.841Z,3.90
2023-01-29T09:07:34.563Z,4.00
2023-01-29T09:10:01.954Z,4.00
2023-01-29T09:12:28.877Z,4.00
2023-01-29T09:14:55.615Z,4.10
2023-01-29T09:17:22.354Z,4.10
2023-01-29T09:19:49.207Z,4.12
2023-01-29T09:22:15.990Z,4.20
2023-01-29T09:24:42.779Z,4.30
2023-01-29T09:27:10.207Z,4.30
2023-01-29T09:29:37.701Z,4.40
2023-01-29T09:32:05.148Z,4.40
2023-01-29T09:34:34.350Z,4.50
2023-01-29T09:37:01.290Z,4.50
2023-01-29T09:39:28.134Z,4.50
2023-01-29T09:42:12.779Z,4.50
2023-01-29T09:45:10.971Z,4.48
2023-01-29T09:47:37.820Z,4.50
2023-01-29T09:50:19.051Z,4.44
2023-01-29T09:53:04.880Z,4.50
2023-01-29T09:55:39.617Z,4.50
2023-01-29T09:58:19.507Z,4.60
2023-01-29T10:00:58.994Z,4.60
2023-01-29T10:03:34.645Z,4.66
2023-01-29T10:06:19.538Z,4.70
2023-01-29T10:09:11.233Z,4.70
2023-01-29T10:12:07.262Z,4.70
2023-01-29T10:14:53.081Z,4.80
2023-01-29T10:17:54.966Z,4.80
2023-01-29T10:20:40.189Z,4.90
2023-01-29T10:23:36.732Z,4.90
2023-01-29T10:26:03.519Z,5.00
2023-01-29T10:28:46.592Z,5.00
2023-01-29T10:31:33.322Z,5.00
2023-01-29T10:34:19.496Z,5.04
2023-01-29T10:36:48.704Z,5.14
2023-01-29T10:39:21.079Z,5.20
2023-01-29T10:42:15.338Z,5.14
2023-01-29T10:45:00.209Z,5.10
2023-01-29T10:47:44.983Z,5.10
2023-01-29T10:50:11.779Z,5.10
2023-01-29T10:52:38.453Z,5.10
2023-01-29T10:55:42.816Z,5.10
2023-01-29T10:58:26.610Z,5.10
2023-01-29T11:00:53.308Z,5.10
2023-01-29T11:03:29.480Z,5.20
2023-01-29T11:06:10.497Z,5.20
2023-01-29T11:09:08.300Z,5.20
2023-01-29T11:11:42.298Z,5.30
2023-01-29T11:14:22.810Z,5.30
2023-01-29T11:16:49.821Z,5.30
2023-01-29T11:19:17.491Z,5.30
2023-01-29T11:22:04.539Z,5.24
2023-01-29T11:24:31.341Z,5.28
2023-01-29T11:26:59.974Z,5.24
2023-01-29T11:29:50.266Z,5.20
2023-01-29T11:32:22.743Z,5.20
2023-01-29T11:35:05.290Z,5.30
2023-01-29T11:37:41.108Z,5.30
2023-01-29T11:40:33.867Z,5.36
2023-01-29T11:43:13.225Z,5.48
2023-01-29T11:45:40.584Z,5.50
2023-01-29T11:48:15.831Z,5.50
2023-01-29T11:50:43.864Z,5.56
2023-01-29T11:53:38.812Z,5.60
2023-01-29T11:56:17.173Z,5.58
2023-01-29T11:58:45.749Z,5.50
2023-01-29T12:01:16.496Z,5.50
2023-01-29T12:03:48.562Z,5.40
2023-01-29T12:06:23.068Z,5.32
2023-01-29T12:08:58.273Z,5.36
2023-01-29T12:11:32.258Z,5.34
2023-01-29T12:14:04.927Z,5.40
2023-01-29T12:16:47.917Z,5.40
2023-01-29T12:19:36.687Z,5.40
2023-01-29T12:22:21.361Z,5.40
2023-01-29T12:24:57.625Z,5.40
2023-01-29T12:27:43.503Z,5.40
2023-01-29T12:30:26.008Z,5.40
2023-01-29T12:33:22.099Z,5.40
2023-01-29T12:35:56.446Z,5.40
2023-01-29T12:38:24.525Z,5.40
2023-01-29T12:41:07.843Z,5.42
2023-01-29T12:43:45.007Z,5.50
2023-01-29T12:46:34.809Z,5.60
2023-01-29T12:49:05.064Z,5.70
2023-01-29T12:51:38.926Z,5.74
2023-01-29T12:54:10.947Z,5.86
2023-01-29T12:56:58.858Z,5.90
2023-01-29T12:59:31.619Z,6.00
2023-01-29T13:02:11.666Z,6.00
2023-01-29T13:04:57.984Z,6.00
2023-01-29T13:07:40.883Z,6.08
2023-01-29T13:10:13.697Z,6.16
2023-01-29T13:12:46.073Z,6.20
2023-01-29T13:15:35.821Z,6.20
2023-01-29T13:18:41.791Z,6.20
2023-01-29T13:21:16.301Z,6.30
2023-01-29T13:23:47.376Z,6.20
2023-01-29T13:26:18.103Z,6.20
2023-01-29T13:28:45.838Z,6.20
2023-01-29T13:31:47.774Z,6.10
2023-01-29T13:34:23.852Z,6.10
2023-01-29T13:36:54.682Z,6.10
2023-01-29T13:39:44.522Z,6.04
2023-01-29T13:42:36.415Z,6.00
2023-01-29T13:45:06.914Z,6.00
2023-01-29T13:47:38.027Z,5.90
2023-01-29T13:50:28.395Z,5.84
2023-01-29T13:53:02.268Z,5.80
2023-01-29T13:55:38.242Z,5.70
2023-01-29T13:58:31.203Z,5.60
2023-01-29T14:00:59.412Z,5.50
2023-01-29T14:03:26.139Z,5.40
2023-01-29T14:06:02.222Z,5.34
2023-01-29T14:08:34.987Z,5.22
2023-01-29T14:11:14.582Z,5.20
2023-01-29T14:13:43.788Z,5.10
2023-01-29T14:16:10.804Z,5.00
2023-01-29T14:18:47.111Z,4.98
2023-01-29T14:21:16.870Z,4.90
2023-01-29T14:23:47.012Z,4.80
2023-01-29T14:26:24.965Z,4.70
2023-01-29T14:29:07.076Z,4.60
2023-01-29T14:31:59.166Z,4.50
2023-01-29T14:34:25.903Z,4.50
2023-01-29T14:37:00.831Z,4.50
2023-01-29T14:39:50.315Z,4.40
2023-01-29T14:42:27.673Z,4.40
2023-01-29T14:44:54.419Z,4.40
2023-01-29T14:47:41.467Z,4.36
2023-01-29T14:50:32.825Z,4.30
2023-01-29T14:53:25.842Z,4.20
2023-01-29T14:56:10.478Z,4.20
2023-01-29T14:59:04.171Z,4.10
2023-01-29T15:01:34.222Z,4.10
2023-01-29T15:04:05.552Z,4.10
2023-01-29T15:06:41.579Z,4.00
2023-01-29T15:09:14.373Z,4.00
2023-01-29T15:11:50.416Z,4.00
2023-01-29T15:14:40.952Z,3.90
2023-01-29T15:17:27.527Z,3.90
2023-01-29T15:19:55.099Z,3.90
2023-01-29T15:22:25.108Z,3.80
2023-01-29T15:25:04.340Z,3.80
2023-01-29T15:27:31.379Z,3.76
2023-01-29T15:30:01.550Z,3.70
2023-01-29T15:32:33.762Z,3.70
2023-01-29T15:35:01.013Z,3.70
2023-01-29T15:37:31.029Z,3.60
2023-01-29T15:39:59.508Z,3.60
2023-01-29T15:42:28.987Z,3.52
2023-01-29T15:44:56.393Z,3.50
2023-01-29T15:47:32.153Z,3.50
2023-01-29T15:50:00.305Z,3.42
2023-01-29T15:52:32.997Z,3.40
2023-01-29T15:55:06.036Z,3.40
2023-01-29T15:57:41.096Z,3.38
2023-01-29T16:00:19.728Z,3.30
2023-01-29T16:02:46.578Z,3.30
2023-01-29T16:05:20.504Z,3.24
2023-01-29T16:07:48.917Z,3.20
2023-01-29T16:10:24.903Z,3.16
2023-01-29T16:12:52.666Z,3.10
2023-01-29T16:15:30.637Z,3.10
2023-01-29T16:17:58.440Z,3.10
2023-01-29T16:20:32.922Z,3.10
2023-01-29T16:23:00.345Z,3.10
2023-01-29T16:25:28.994Z,3.02
2023-01-29T16:27:56.260Z,3.00
2023-01-29T16:30:26.949Z,3.00
2023-01-29T16:32:54.126Z,3.00
2023-01-29T16:35:21.098Z,2.98
2023-01-29T16:37:51.508Z,2.90
2023-01-29T16:40:33.378Z,2.90
2023-01-29T16:43:37.486Z,2.90
2023-01-29T16:46:22.765Z,2.90
2023-01-29T16:48:49.744Z,2.90
2023-01-29T16:51:28.756Z,2.86
2023-01-29T16:54:00.001Z,2.80
2023-01-29T16:56:30.597Z,2.70
2023-01-29T16:58:58.309Z,2.68
2023-01-29T17:01:26.908Z,2.70
2023-01-29T17:04:01.417Z,2.70
2023-01-29T17:06:31.945Z,2.70
2023-01-29T17:08:59.281Z,2.70
2023-01-29T17:11:37.726Z,2.70
2023-01-29T17:14:08.298Z,2.70
2023-01-29T17:16:46.739Z,2.70
2023-01-29T17:19:20.823Z,2.70
2023-01-29T17:21:47.704Z,2.76
2023-01-29T17:24:16.045Z,2.80
2023-01-29T17:26:43.046Z,2.80
2023-01-29T17:29:23.530Z,2.80
2023-01-29T17:31:50.493Z,2.80
2023-01-29T17:34:17.921Z,2.80
2023-01-29T17:36:45.027Z,2.80
2023-01-29T17:39:17.488Z,2.78
2023-01-29T17:41:47.668Z,2.70
2023-01-29T17:44:14.471Z,2.72
2023-01-29T17:46:41.163Z,2.70
2023-01-29T17:49:37.740Z,2.70
2023-01-29T17:52:04.872Z,2.70
2023-01-29T17:54:31.630Z,2.70
2023-01-29T17:56:58.574Z,2.70
2023-01-29T17:59:30.231Z,2.70
2023-01-29T18:01:56.961Z,2.70
2023-01-29T18:04:23.828Z,2.70
2023-01-29T18:06:51.888Z,2.70
2023-01-29T18:09:20.792Z,2.70
2023-01-29T18:11:48.660Z,2.68
2023-01-29T18:14:15.796Z,2.60
2023-01-29T18:16:44.166Z,2.60
2023-01-29T18:19:24.028Z,2.60
2023-01-29T18:21:51.208Z,2.60
2023-01-29T18:24:18.927Z,2.60
2023-01-29T18:26:45.664Z,2.60
2023-01-29T18:29:12.536Z,2.60
2023-01-29T18:31:39.366Z,2.60
2023-01-29T18:34:06.508Z,2.58
2023-01-29T18:36:33.214Z,2.52
2023-01-29T18:39:00.105Z,2.54
2023-01-29T18:41:26.836Z,2.58
2023-01-29T18:43:54.301Z,2.56
2023-01-29T18:46:21.232Z,2.54
2023-01-29T18:48:48.067Z,2.54
2023-01-29T18:51:14.883Z,2.50
2023-01-29T18:53:41.652Z,2.50
2023-01-29T18:56:09.875Z,2.44
2023-01-29T18:58:37.309Z,2.40
2023-01-29T19:01:09.692Z,2.46
2023-01-29T19:03:37.209Z,2.44
2023-01-29T19:06:06.179Z,2.42
2023-01-29T19:08:33.172Z,2.50
2023-01-29T19:11:02.626Z,2.50
2023-01-29T19:13:33.007Z,2.50
2023-01-29T19:15:59.823Z,2.50
2023-01-29T19:18:28.000Z,2.50
2023-01-29T19:20:55.264Z,2.50
2023-01-29T19:23:22.295Z,2.50
2023-01-29T19:25:49.210Z,2.50
2023-01-29T19:28:16.118Z,2.50
2023-01-29T19:30:42.993Z,2.50
2023-01-29T19:33:10.796Z,2.50
2023-01-29T19:35:37.641Z,2.50
2023-01-29T19:38:04.973Z,2.50
2023-01-29T19:40:31.829Z,2.50
2023-01-29T19:42:58.803Z,2.50
2023-01-29T19:45:49.194Z,2.46
2023-01-29T19:48:17.034Z,2.46
2023-01-29T19:50:43.763Z,2.48
2023-01-29T19:53:10.489Z,2.48
2023-01-29T19:55:37.365Z,2.44
2023-01-29T19:58:04.923Z,2.48
2023-01-29T20:00:31.741Z,2.50
2023-01-29T20:02:58.701Z,2.40
2023-01-29T20:05:27.273Z,2.40
2023-01-29T20:07:54.331Z,2.40
2023-01-29T20:10:21.708Z,2.40
2023-01-29T20:12:48.503Z,2.40
2023-01-29T20:15:15.760Z,2.40
2023-01-29T20:17:43.701Z,2.34
2023-01-29T20:20:11.095Z,2.30
2023-01-29T20:22:37.931Z,2.30
2023-01-29T20:25:06.152Z,2.30
2023-01-29T20:27:32.956Z,2.40
2023-01-29T20:29:59.919Z,2.38
2023-01-29T20:32:26.852Z,2.38
2023-01-29T20:34:53.652Z,2.34
2023-01-29T20:37:20.744Z,2.40
2023-01-29T20:39:47.614Z,2.40
2023-01-29T20:42:14.724Z,2.40
2023-01-29T20:44:42.091Z,2.40
2023-01-29T20:47:09.075Z,2.40
2023-01-29T20:49:35.968Z,2.40
2023-01-29T20:52:02.708Z,2.40
2023-01-29T20:54:30.179Z,2.40
2023-01-29T20:56:57.098Z,2.40
2023-01-29T20:59:23.912Z,2.40
2023-01-29T21:01:50.752Z,2.40
2023-01-29T21:04:17.741Z,2.40
2023-01-29T21:06:44.425Z,2.40
2023-01-29T21:09:11.117Z,2.40
2023-01-29T21:11:37.825Z,2.40
2023-01-29T21:14:04.700Z,2.30
2023-01-29T21:16:31.732Z,2.30
2023-01-29T21:18:59.227Z,2.22
2023-01-29T21:21:26.842Z,2.20
2023-01-29T21:23:54.626Z,2.20
2023-01-29T21:26:23.307Z,2.20
2023-01-29T21:28:50.261Z,2.20
2023-01-29T21:31:17.794Z,2.30
2023-01-29T21:33:44.972Z,2.30
2023-01-29T21:36:12.014Z,2.30
2023-01-29T21:38:39.575Z,2.30
2023-01-29T21:41:09.755Z,2.30
2023-01-29T21:43:37.437Z,2.30
2023-01-29T21:46:11.628Z,2.30
2023-01-29T21:48:39.555Z,2.30
2023-01-29T21:51:06.891Z,2.30
2023-01-29T21:53:34.113Z,2.30
2023-01-29T21:56:02.340Z,2.30
2023-01-29T21:58:29.367Z,2.30
2023-01-29T22:00:57.189Z,2.38
2023-01-29T22:03:47.089Z,2.40
2023-01-29T22:06:14.525Z,2.38
2023-01-29T22:08:41.309Z,2.32
2023-01-29T22:11:08.564Z,2.30
2023-01-29T22:13:35.407Z,2.30
2023-01-29T22:16:02.135Z,2.30
2023-01-29T22:18:28.969Z,2.30
2023-01-29T22:20:56.963Z,2.26
2023-01-29T22:23:24.662Z,2.26
2023-01-29T22:25:51.383Z,2.30
2023-01-29T22:28:18.764Z,2.20
2023-01-29T22:30:45.613Z,2.20
2023-01-29T22:33:12.734Z,2.20
2023-01-29T22:35:39.658Z,2.20
2023-01-29T22:38:06.705Z,2.20
2023-01-29T22:40:33.420Z,2.12
2023-01-29T22:43:00.282Z,2.16
2023-01-29T22:45:27.444Z,2.18
2023-01-29T22:47:54.262Z,2.20
2023-01-29T22:50:21.093Z,2.20
2023-01-29T22:52:54.095Z,2.20
2023-01-29T22:55:21.280Z,2.20
2023-01-29T22:57:51.407Z,2.20
2023-01-29T23:00:18.898Z,2.20
2023-01-29T23:02:49.813Z,2.20
2023-01-29T23:05:17.566Z,2.20
2023-01-29T23:07:44.896Z,2.20
2023-01-29T23:10:14.026Z,2.20
2023-01-29T23:12:40.814Z,2.20
2023-01-29T23:15:08.031Z,2.20
2023-01-29T23:17:34.905Z,2.20
2023-01-29T23:20:01.612Z,2.20
2023-01-29T23:22:28.385Z,2.14
2023-01-29T23:24:56.556Z,2.10
2023-01-29T23:27:23.367Z,2.12
2023-01-29T23:29:50.216Z,2.12
2023-01-29T23:32:20.371Z,2.10
2023-01-29T23:34:47.146Z,2.08
2023-01-29T23:37:14.354Z,2.10
2023-01-29T23:39:41.041Z,2.08
2023-01-29T23:42:08.247Z,2.00
2023-01-29T23:44:35.918Z,2.02
2023-01-29T23:47:02.849Z,2.00
2023-01-29T23:49:29.510Z,2.08
2023-01-29T23:51:56.324Z,2.06
2023-01-29T23:54:23.683Z,2.02
2023-01-29T23:56:50.441Z,2.10
2023-01-29T23:59:17.438Z,2.02
